Time;durP1;ratioP1;P1;durP2;ratioP2;P2;SDS_P1;SDS_P2;PMS_P1;PMS_P2;Temp;Humidity;BMP_temperature;BMP_pressure;BME280_temperature;BME280_humidity;BME280_pressure;Samples;Min_cycle;Max_cycle;Signal;HPM_P1;HPM_P2
2022/08/14 00:00:44;;;;;;;10.13;6.10;;;20.10;99.90;;;;;;5032734;28;20033;-77
2022/08/14 00:03:28;;;;;;;9.63;6.30;;;20.10;99.90;;;;;;5032476;28;20083;-77
2022/08/14 00:05:55;;;;;;;13.30;6.70;;;20.10;99.90;;;;;;5049394;28;20064;-77
2022/08/14 00:08:21;;;;;;;9.20;6.20;;;20.10;99.90;;;;;;5032576;28;20049;-77
2022/08/14 00:10:47;;;;;;;9.82;6.53;;;20.10;99.90;;;;;;5016012;28;20041;-77
2022/08/14 00:13:15;;;;;;;7.03;6.32;;;20.00;99.90;;;;;;5016175;28;20480;-77
2022/08/14 00:15:43;;;;;;;10.25;7.47;;;20.00;99.90;;;;;;5050428;28;20163;-77
2022/08/14 00:18:11;;;;;;;7.57;6.72;;;20.00;99.90;;;;;;5032686;28;20416;-77
2022/08/14 00:20:40;;;;;;;8.57;6.22;;;20.00;99.90;;;;;;5032450;28;20040;-77
2022/08/14 00:23:07;;;;;;;7.47;6.50;;;20.00;99.90;;;;;;5032397;28;20041;-77
2022/08/14 00:25:33;;;;;;;9.25;6.30;;;19.90;99.90;;;;;;5016047;28;20470;-77
2022/08/14 00:27:59;;;;;;;9.43;6.70;;;19.90;99.90;;;;;;5032318;28;20120;-77
2022/08/14 00:30:25;;;;;;;7.72;6.47;;;19.90;99.90;;;;;;5032479;28;20037;-77
2022/08/14 00:32:51;;;;;;;8.00;6.10;;;19.90;99.90;;;;;;5053209;28;20045;-77
2022/08/14 00:35:16;;;;;;;9.25;6.82;;;19.90;99.90;;;;;;5019904;28;20048;-77
2022/08/14 00:37:44;;;;;;;9.48;6.85;;;19.80;99.90;;;;;;5036322;28;20065;-77
2022/08/14 00:40:13;;;;;;;10.25;6.47;;;19.80;99.90;;;;;;5019708;28;20488;-77
2022/08/14 00:42:39;;;;;;;8.70;6.45;;;19.70;99.90;;;;;;5036070;28;20377;-77
2022/08/14 00:45:07;;;;;;;9.45;6.35;;;19.80;99.90;;;;;;5035795;28;20037;-77
2022/08/14 00:47:34;;;;;;;9.20;6.57;;;19.70;99.90;;;;;;5054123;28;20520;-77
2022/08/14 00:50:01;;;;;;;9.15;7.15;;;19.70;99.90;;;;;;5053611;28;20561;-77
2022/08/14 00:52:27;;;;;;;6.82;6.00;;;19.70;99.90;;;;;;5019313;28;20079;-77
2022/08/14 00:54:54;;;;;;;7.97;6.60;;;19.70;99.90;;;;;;5035926;28;20045;-77
2022/08/14 00:57:22;;;;;;;8.88;7.07;;;19.60;99.90;;;;;;5035615;28;20451;-77
2022/08/14 00:59:48;;;;;;;8.80;7.00;;;19.60;99.90;;;;;;5035442;28;20048;-77
2022/08/14 01:02:17;;;;;;;14.02;6.80;;;19.70;99.90;;;;;;5019138;28;20048;-77
2022/08/14 01:04:44;;;;;;;7.53;6.28;;;19.60;99.90;;;;;;5053551;28;20534;-77
2022/08/14 01:07:10;;;;;;;9.68;6.35;;;19.60;99.90;;;;;;5052609;28;20063;-77
2022/08/14 01:09:36;;;;;;;9.10;7.07;;;19.60;99.90;;;;;;5035555;28;20136;-77
2022/08/14 01:12:04;;;;;;;9.15;7.18;;;19.60;99.90;;;;;;5035386;28;20446;-77
2022/08/14 01:14:29;;;;;;;9.30;6.95;;;19.60;99.90;;;;;;5052329;28;20124;-77
2022/08/14 01:16:56;;;;;;;9.10;7.00;;;19.50;99.90;;;;;;5053410;28;20555;-77
2022/08/14 01:22:12;;;;;;;10.13;6.72;;;19.50;99.90;;;;;;5035567;28;20491;-77
2022/08/14 01:24:37;;;;;;;8.48;7.35;;;19.40;99.90;;;;;;5019019;28;20041;-77
2022/08/14 01:27:06;;;;;;;9.10;6.53;;;19.40;99.90;;;;;;5035330;28;20041;-77
2022/08/14 01:29:36;;;;;;;10.93;7.10;;;19.40;99.90;;;;;;5052995;28;20127;-77
2022/08/14 01:32:04;;;;;;;8.93;7.68;;;19.40;99.90;;;;;;5035346;28;20045;-77
2022/08/14 01:34:31;;;;;;;8.52;6.50;;;19.30;99.90;;;;;;5035075;28;20052;-77
2022/08/14 01:36:58;;;;;;;11.48;7.20;;;19.30;99.90;;;;;;5018453;28;20530;-77
2022/08/14 01:39:24;;;;;;;9.38;7.15;;;19.30;99.90;;;;;;5035302;28;20049;-79
2022/08/14 01:41:59;;;;;;;8.02;6.55;;;19.30;99.90;;;;;;5018115;28;20041;-79
2022/08/14 01:44:28;;;;;;;11.27;7.47;;;19.20;99.90;;;;;;5034865;28;20045;-79
2022/08/14 01:46:59;;;;;;;12.55;6.75;;;19.20;99.90;;;;;;5034947;28;20087;-79
2022/08/14 01:49:25;;;;;;;9.75;7.70;;;19.20;99.90;;;;;;5035304;28;20040;-79
2022/08/14 01:51:55;;;;;;;10.60;6.90;;;19.20;99.90;;;;;;5018047;28;20032;-79
2022/08/14 01:54:22;;;;;;;7.88;6.93;;;19.20;99.90;;;;;;5035603;28;20496;-79
2022/08/14 01:56:56;;;;;;;9.13;6.53;;;19.20;99.90;;;;;;5020399;28;20094;-79
2022/08/14 01:59:33;;;;;;;11.55;7.43;;;19.20;99.90;;;;;;5037206;28;20098;-79
2022/08/14 02:02:02;;;;;;;9.18;6.32;;;19.20;99.90;;;;;;5020198;28;20400;-78
2022/08/14 02:04:33;;;;;;;7.82;6.75;;;19.20;99.90;;;;;;5036888;28;20043;-77
2022/08/14 02:07:01;;;;;;;9.57;7.15;;;19.10;99.90;;;;;;5020692;28;20037;-79
2022/08/14 02:09:32;;;;;;;8.90;7.43;;;19.10;99.90;;;;;;5020655;28;20118;-78
2022/08/14 02:11:57;;;;;;;10.02;7.40;;;19.10;99.90;;;;;;5036436;28;20049;-79
2022/08/14 02:14:23;;;;;;;8.40;6.90;;;19.10;99.90;;;;;;5019548;28;20048;-78
2022/08/14 02:16:51;;;;;;;10.65;7.20;;;19.10;99.90;;;;;;5037225;28;20056;-78
2022/08/14 02:19:20;;;;;;;8.85;7.05;;;19.10;99.90;;;;;;5037134;28;20045;-78
2022/08/14 02:21:47;;;;;;;10.45;7.82;;;19.10;99.90;;;;;;5019532;28;20048;-79
2022/08/14 02:24:14;;;;;;;12.43;7.20;;;19.10;99.90;;;;;;5054137;28;20119;-79
2022/08/14 02:26:46;;;;;;;8.23;7.10;;;19.10;99.90;;;;;;5035325;28;20055;-77
2022/08/14 02:29:16;;;;;;;9.63;7.18;;;19.10;99.90;;;;;;5034164;28;20045;-77
2022/08/14 02:31:45;;;;;;;9.48;7.22;;;19.10;99.90;;;;;;5017366;28;20041;-78
2022/08/14 02:34:19;;;;;;;8.38;6.75;;;19.10;99.90;;;;;;5050770;28;20079;-77
2022/08/14 02:36:47;;;;;;;9.00;7.20;;;19.10;99.90;;;;;;5017376;28;20087;-79
2022/08/14 02:39:14;;;;;;;8.65;7.05;;;19.00;99.90;;;;;;5017449;28;20483;-78
2022/08/14 02:41:40;;;;;;;10.63;6.90;;;19.00;99.90;;;;;;5033495;28;20091;-77
2022/08/14 02:44:09;;;;;;;10.00;6.85;;;19.00;99.90;;;;;;5017631;28;20033;-78
2022/08/14 02:46:42;;;;;;;10.57;7.35;;;19.10;99.90;;;;;;5033918;28;20045;-78
2022/08/14 02:49:07;;;;;;;9.63;7.15;;;19.10;99.90;;;;;;5033812;28;20496;-78
2022/08/14 02:51:34;;;;;;;8.88;7.15;;;19.10;99.90;;;;;;5033781;28;20047;-78
2022/08/14 02:54:00;;;;;;;11.35;7.40;;;19.10;99.90;;;;;;5027189;28;20079;-79
2022/08/14 02:56:26;;;;;;;9.88;7.30;;;19.00;99.90;;;;;;5046576;28;20128;-79
2022/08/14 02:58:55;;;;;;;11.25;7.43;;;19.00;99.90;;;;;;5044543;28;20045;-78
2022/08/14 03:01:22;;;;;;;9.38;7.05;;;18.90;99.90;;;;;;5016761;28;20484;-77
2022/08/14 03:03:48;;;;;;;9.13;7.05;;;18.90;99.90;;;;;;5051210;28;20079;-79
2022/08/14 03:06:17;;;;;;;9.20;7.10;;;18.90;99.90;;;;;;5033463;28;20052;-78
2022/08/14 03:08:42;;;;;;;14.00;7.68;;;18.80;99.90;;;;;;5033278;28;20052;-77
2022/08/14 03:11:12;;;;;;;10.18;7.68;;;18.80;99.90;;;;;;5033255;28;20037;-78
2022/08/14 03:13:40;;;;;;;12.30;7.45;;;18.90;99.90;;;;;;5033276;28;20037;-77
2022/08/14 03:16:09;;;;;;;9.15;7.18;;;18.80;99.90;;;;;;5051198;28;20557;-78
2022/08/14 03:18:41;;;;;;;8.75;7.25;;;19.00;99.90;;;;;;5033124;28;20045;-77
2022/08/14 03:21:12;;;;;;;9.13;6.80;;;18.80;99.90;;;;;;5033063;28;20071;-78
2022/08/14 03:23:38;;;;;;;10.50;7.88;;;18.80;99.90;;;;;;5033427;28;20045;-77
2022/08/14 03:26:09;;;;;;;11.43;7.35;;;18.80;99.90;;;;;;5016631;28;20052;-77
2022/08/14 03:28:37;;;;;;;8.33;7.00;;;18.70;99.90;;;;;;5033069;28;20037;-78
2022/08/14 03:31:04;;;;;;;12.60;7.88;;;18.70;99.90;;;;;;5016318;28;20037;-78
2022/08/14 03:33:30;;;;;;;9.52;7.28;;;18.60;99.90;;;;;;5033277;28;20134;-78
2022/08/14 03:35:55;;;;;;;13.38;8.38;;;18.60;99.90;;;;;;5050669;28;20095;-78
2022/08/14 03:38:21;;;;;;;13.43;8.05;;;18.50;99.90;;;;;;5017007;28;20127;-79
2022/08/14 03:40:47;;;;;;;10.13;7.65;;;18.50;99.90;;;;;;5052421;28;20045;-78
2022/08/14 03:43:13;;;;;;;11.95;7.57;;;18.40;99.90;;;;;;5034936;28;20033;-79
2022/08/14 03:45:39;;;;;;;12.52;8.25;;;18.30;99.90;;;;;;5018172;28;20033;-79
2022/08/14 03:48:18;;;;;;;10.90;8.77;;;18.30;99.90;;;;;;5052469;28;20388;-77
2022/08/14 03:50:52;;;;;;;10.65;8.40;;;18.20;99.90;;;;;;5018029;28;20400;-79
2022/08/14 03:53:19;;;;;;;11.77;7.38;;;18.30;99.90;;;;;;5035116;28;20090;-79
2022/08/14 03:55:46;;;;;;;18.50;8.25;;;18.20;99.90;;;;;;5034561;28;20091;-79
2022/08/14 03:58:12;;;;;;;9.75;7.78;;;18.20;99.90;;;;;;5034965;28;20451;-79
2022/08/14 04:00:39;;;;;;;12.52;7.38;;;18.20;99.90;;;;;;5052453;28;20036;-79
2022/08/14 04:03:08;;;;;;;10.40;7.53;;;18.20;99.90;;;;;;5035628;28;20045;-79
2022/08/14 04:05:37;;;;;;;13.57;8.57;;;18.10;99.90;;;;;;5037350;28;20180;-79
2022/08/14 04:08:03;;;;;;;12.43;7.63;;;18.20;99.90;;;;;;5022711;28;20037;-78
2022/08/14 04:10:29;;;;;;;12.55;8.65;;;18.10;99.90;;;;;;5038502;28;20045;-78
2022/08/14 04:12:58;;;;;;;9.48;7.38;;;18.10;99.90;;;;;;5039186;28;20048;-79
2022/08/14 04:15:24;;;;;;;14.23;7.85;;;18.10;99.90;;;;;;5022799;28;20047;-77
2022/08/14 04:17:49;;;;;;;9.25;7.93;;;18.10;99.90;;;;;;5038811;28;20041;-79
2022/08/14 04:20:15;;;;;;;10.68;7.50;;;18.10;99.90;;;;;;5038372;28;20071;-79
2022/08/14 04:22:42;;;;;;;8.95;7.38;;;18.10;99.90;;;;;;5038677;28;20037;-78
2022/08/14 04:25:09;;;;;;;11.50;8.00;;;18.10;99.90;;;;;;5022300;28;20430;-78
2022/08/14 04:27:35;;;;;;;9.25;7.78;;;18.10;99.90;;;;;;5038735;28;20095;-79
2022/08/14 04:30:04;;;;;;;9.10;7.18;;;18.00;99.90;;;;;;5022378;28;20044;-78
2022/08/14 04:32:31;;;;;;;9.75;8.18;;;18.10;99.90;;;;;;5039749;28;20044;-78
2022/08/14 04:34:56;;;;;;;13.57;7.93;;;18.10;99.90;;;;;;5039506;28;20446;-78
2022/08/14 04:45:42;;;;;;;11.77;8.80;;;18.20;99.90;;;;;;5056313;28;20052;-79
2022/08/14 04:48:13;;;;;;;12.77;8.32;;;18.20;99.90;;;;;;5039106;28;20083;-78
2022/08/14 04:50:45;;;;;;;11.80;8.57;;;18.20;99.90;;;;;;5021840;28;20032;-78
2022/08/14 04:53:13;;;;;;;10.52;8.57;;;18.20;99.90;;;;;;5038475;28;20076;-77
2022/08/14 04:55:41;;;;;;;13.40;8.43;;;18.30;99.90;;;;;;5039542;28;20432;-79
2022/08/14 04:58:08;;;;;;;10.60;8.75;;;18.20;99.90;;;;;;5056939;28;20076;-78
2022/08/14 05:00:35;;;;;;;9.02;8.10;;;18.30;99.90;;;;;;5021470;28;20164;-79
2022/08/14 05:03:02;;;;;;;10.48;8.48;;;18.40;99.90;;;;;;5037342;28;20040;-79
2022/08/14 05:05:29;;;;;;;11.50;8.18;;;18.40;99.90;;;;;;5038436;28;20041;-78
2022/08/14 05:07:55;;;;;;;13.57;8.48;;;18.50;99.90;;;;;;5039813;28;20061;-79
2022/08/14 05:10:23;;;;;;;11.20;7.38;;;18.70;99.90;;;;;;5038358;28;20637;-79
2022/08/14 05:12:51;;;;;;;12.52;8.07;;;19.10;99.90;;;;;;5022439;28;20037;-79
2022/08/14 05:15:20;;;;;;;9.88;8.07;;;19.50;99.90;;;;;;5039708;28;20033;-79
2022/08/14 05:17:45;;;;;;;12.88;9.38;;;19.90;99.90;;;;;;5037724;28;20044;-77
2022/08/14 05:20:13;;;;;;;12.65;8.27;;;20.30;99.90;;;;;;5038451;28;20124;-79
2022/08/14 05:22:38;;;;;;;9.68;7.30;;;20.60;99.90;;;;;;5039234;28;20519;-79
2022/08/14 05:25:04;;;;;;;11.15;7.88;;;20.90;99.90;;;;;;5038321;28;20124;-79
2022/08/14 05:27:30;;;;;;;11.00;8.10;;;21.00;99.90;;;;;;5038366;28;20040;-78
2022/08/14 05:29:55;;;;;;;10.00;7.55;;;21.00;99.90;;;;;;5054195;28;20051;-78
2022/08/14 05:32:22;;;;;;;9.52;7.88;;;21.20;99.90;;;;;;5026329;28;20045;-79
2022/08/14 05:34:47;;;;;;;8.38;7.28;;;21.40;99.90;;;;;;5036080;28;20102;-77
2022/08/14 05:37:13;;;;;;;9.73;8.25;;;21.50;99.90;;;;;;5053500;28;20041;-78
2022/08/14 05:39:40;;;;;;;9.77;7.22;;;21.60;99.90;;;;;;5045014;28;20045;-79
2022/08/14 05:42:06;;;;;;;14.05;9.30;;;21.70;99.90;;;;;;5056085;28;20408;-79
2022/08/14 05:44:32;;;;;;;10.52;8.27;;;22.00;99.90;;;;;;5036202;28;20518;-79
2022/08/14 05:46:58;;;;;;;12.90;7.97;;;22.30;99.90;;;;;;5036213;28;20100;-79
2022/08/14 05:49:23;;;;;;;8.68;6.97;;;22.60;99.90;;;;;;5036563;28;20049;-79
2022/08/14 05:51:49;;;;;;;11.65;7.55;;;22.70;99.90;;;;;;5035866;28;20492;-79
2022/08/14 05:54:15;;;;;;;8.60;7.55;;;22.60;99.90;;;;;;5020285;28;20477;-79
2022/08/14 05:56:40;;;;;;;8.82;7.55;;;22.40;99.90;;;;;;5036394;28;20107;-78
2022/08/14 05:59:06;;;;;;;11.10;8.55;;;22.20;99.90;;;;;;5037367;28;20083;-79
2022/08/14 06:01:32;;;;;;;8.60;7.75;;;22.10;99.90;;;;;;5035772;28;20069;-79
2022/08/14 06:03:57;;;;;;;8.50;7.60;;;22.00;99.90;;;;;;5020135;28;20132;-78
2022/08/14 06:06:23;;;;;;;9.90;7.82;;;21.90;99.90;;;;;;5020244;28;20073;-79
2022/08/14 06:08:48;;;;;;;10.27;7.63;;;21.90;99.90;;;;;;5019815;28;20598;-79
2022/08/14 06:11:14;;;;;;;11.77;7.18;;;21.80;99.90;;;;;;5036019;28;20044;-79
2022/08/14 06:13:42;;;;;;;9.13;7.95;;;21.80;99.90;;;;;;5035570;28;20041;-79
2022/08/14 06:16:08;;;;;;;12.90;8.05;;;21.90;99.90;;;;;;5019246;28;20487;-79
2022/08/14 06:18:34;;;;;;;12.50;9.13;;;22.10;99.90;;;;;;5052385;28;20041;-79
2022/08/14 06:21:02;;;;;;;9.65;7.82;;;22.30;99.90;;;;;;5019039;28;20048;-79
2022/08/14 06:23:27;;;;;;;9.98;7.88;;;22.40;99.90;;;;;;5019255;28;20051;-78
2022/08/14 06:25:53;;;;;;;11.48;8.38;;;22.30;99.90;;;;;;5019277;28;20131;-79
2022/08/14 06:28:24;;;;;;;10.32;7.82;;;22.20;99.90;;;;;;5034967;28;20130;-79
2022/08/14 06:30:50;;;;;;;10.07;7.07;;;22.10;99.90;;;;;;5035697;28;20045;-79
2022/08/14 06:33:18;;;;;;;11.73;7.50;;;22.10;99.90;;;;;;5020058;28;20048;-78
2022/08/14 06:35:44;;;;;;;8.90;6.93;;;22.20;99.90;;;;;;5020589;28;20045;-79
2022/08/14 06:38:19;;;;;;;10.25;8.05;;;22.20;99.90;;;;;;5019643;28;20049;-78
2022/08/14 06:40:45;;;;;;;8.93;7.47;;;22.50;99.90;;;;;;5054422;28;20040;-78
2022/08/14 06:43:12;;;;;;;9.57;7.80;;;23.10;99.90;;;;;;5036508;28;20037;-78
2022/08/14 06:45:40;;;;;;;11.80;7.25;;;23.80;99.90;;;;;;5017376;28;20484;-78
2022/08/14 06:48:16;;;;;;;9.20;7.18;;;24.40;99.90;;;;;;5034002;28;20033;-78
2022/08/14 06:50:43;;;;;;;8.18;7.22;;;24.90;99.90;;;;;;5033599;28;20037;-77
2022/08/14 06:53:10;;;;;;;10.60;7.93;;;25.30;99.90;;;;;;5050539;28;20527;-78
2022/08/14 06:55:36;;;;;;;8.85;6.90;;;25.70;99.90;;;;;;5033633;28;20443;-77
2022/08/14 06:58:02;;;;;;;9.35;6.55;;;26.00;99.90;;;;;;5050046;28;20041;-77
2022/08/14 07:00:28;;;;;;;8.80;6.93;;;26.10;99.90;;;;;;5033185;28;20407;-78
2022/08/14 07:05:45;;;;;;;8.80;6.55;;;25.80;99.90;;;;;;5033490;28;20056;-78
2022/08/14 07:08:12;;;;;;;8.25;7.35;;;25.40;99.90;;;;;;5033429;28;20056;-77
2022/08/14 07:10:38;;;;;;;7.53;6.70;;;25.30;99.90;;;;;;5033507;28;20614;-78
2022/08/14 07:13:04;;;;;;;8.35;6.38;;;25.40;99.90;;;;;;5049984;28;20041;-77
2022/08/14 07:15:32;;;;;;;8.02;6.72;;;25.40;99.90;;;;;;5051255;28;20045;-78
2022/08/14 07:17:58;;;;;;;7.20;5.93;;;25.40;99.90;;;;;;5033145;28;20045;-78
2022/08/14 07:20:26;;;;;;;7.32;6.53;;;25.40;99.90;;;;;;5050657;28;20044;-77
2022/08/14 07:22:55;;;;;;;8.73;6.30;;;25.50;99.90;;;;;;5050967;28;20068;-77
2022/08/14 07:25:21;;;;;;;7.68;6.72;;;25.60;99.90;;;;;;5033354;28;20104;-78
2022/08/14 07:27:46;;;;;;;7.07;6.35;;;25.70;99.90;;;;;;5033487;28;20128;-76
2022/08/14 07:30:12;;;;;;;7.60;6.28;;;26.10;99.90;;;;;;5033367;28;20048;-83
2022/08/14 07:32:37;;;;;;;7.95;6.18;;;26.60;99.90;;;;;;5033164;28;20571;-83
2022/08/14 07:35:03;;;;;;;7.90;6.88;;;27.30;99.90;;;;;;5033242;28;20040;-83
2022/08/14 07:37:29;;;;;;;9.20;6.40;;;27.90;99.90;;;;;;5033236;28;20041;-83
2022/08/14 07:39:55;;;;;;;6.85;5.50;;;28.30;99.90;;;;;;5032629;28;20084;-83
2022/08/14 07:42:21;;;;;;;6.75;5.95;;;28.70;99.90;;;;;;5033262;28;20052;-83
2022/08/14 07:44:46;;;;;;;6.50;5.82;;;29.00;99.40;;;;;;5032942;28;20099;-83
2022/08/14 07:47:14;;;;;;;9.13;8.18;;;29.30;98.20;;;;;;5033034;28;20554;-82
2022/08/14 07:49:40;;;;;;;11.73;8.60;;;29.70;96.90;;;;;;5032822;28;20072;-82
2022/08/14 07:52:06;;;;;;;9.02;6.43;;;30.00;95.40;;;;;;5033093;28;20489;-81
2022/08/14 07:54:31;;;;;;;11.38;5.80;;;30.30;94.40;;;;;;5032936;28;20041;-83
2022/08/14 07:56:58;;;;;;;6.15;5.38;;;30.50;93.40;;;;;;5032897;28;20041;-82
2022/08/14 07:59:24;;;;;;;9.75;5.03;;;30.60;91.40;;;;;;5050655;28;20048;-82
2022/08/14 08:01:51;;;;;;;6.80;4.88;;;30.70;90.60;;;;;;5032690;28;20476;-82
2022/08/14 08:04:22;;;;;;;5.45;4.95;;;30.90;89.30;;;;;;5032889;28;20491;-83
2022/08/14 08:06:49;;;;;;;5.47;4.80;;;31.10;86.40;;;;;;5032757;28;20044;-82
2022/08/14 08:09:17;;;;;;;7.90;5.05;;;31.20;85.70;;;;;;5042307;28;20120;-83
2022/08/14 08:11:43;;;;;;;7.43;5.88;;;31.50;83.20;;;;;;5022661;28;20090;-82
2022/08/14 08:14:09;;;;;;;7.13;5.38;;;31.60;81.20;;;;;;5050465;28;20049;-82
2022/08/14 08:16:37;;;;;;;5.32;4.47;;;31.60;80.10;;;;;;5064612;28;20066;-82
2022/08/14 08:19:03;;;;;;;5.55;4.88;;;31.80;78.60;;;;;;5047138;28;20043;-82
2022/08/14 08:21:28;;;;;;;6.07;5.30;;;32.00;79.10;;;;;;5064293;28;20046;-82
2022/08/14 08:23:54;;;;;;;9.27;4.72;;;32.00;76.90;;;;;;5066067;28;20048;-83
2022/08/14 08:26:20;;;;;;;6.28;4.80;;;32.00;75.20;;;;;;5058475;28;20047;-82
2022/08/14 08:28:56;;;;;;;6.63;5.32;;;32.00;74.00;;;;;;5050647;28;20043;-83
2022/08/14 08:31:22;;;;;;;6.18;4.53;;;32.10;73.10;;;;;;5047397;28;20062;-83
2022/08/14 08:33:51;;;;;;;10.23;5.72;;;32.10;73.00;;;;;;5067044;28;20483;-82
2022/08/14 08:36:17;;;;;;;7.15;4.90;;;32.20;72.10;;;;;;5048725;28;20045;-83
2022/08/14 08:38:44;;;;;;;5.35;4.95;;;32.30;72.20;;;;;;5042052;28;20037;-81
2022/08/14 08:41:10;;;;;;;4.72;4.32;;;32.40;71.80;;;;;;5046393;28;20040;-81
2022/08/14 08:43:36;;;;;;;6.82;4.72;;;32.50;70.60;;;;;;5053989;28;20402;-82
2022/08/14 08:46:13;;;;;;;6.57;4.68;;;32.50;69.50;;;;;;5052171;28;20055;-82
2022/08/14 08:48:48;;;;;;;4.63;4.22;;;32.40;68.40;;;;;;5052476;28;20456;-81
2022/08/14 08:51:28;;;;;;;6.88;4.65;;;32.50;66.40;;;;;;5040816;28;20045;-80
2022/08/14 08:53:59;;;;;;;4.70;4.30;;;32.50;66.00;;;;;;5047253;28;20086;-81
2022/08/14 08:56:39;;;;;;;6.88;4.75;;;32.40;67.40;;;;;;5054104;28;20051;-81
2022/08/14 08:59:28;;;;;;;5.25;4.75;;;32.60;66.00;;;;;;5048411;28;20445;-81
2022/08/14 09:01:59;;;;;;;6.00;5.07;;;32.60;64.30;;;;;;5050255;28;20044;-80
2022/08/14 09:04:33;;;;;;;7.72;5.03;;;32.50;66.00;;;;;;5050221;28;20093;-81
2022/08/14 09:06:58;;;;;;;5.30;4.80;;;32.50;66.50;;;;;;5043862;28;20396;-80
2022/08/14 09:09:30;;;;;;;6.28;4.97;;;32.50;66.30;;;;;;5038180;28;20099;-81
2022/08/14 09:11:57;;;;;;;5.43;4.53;;;32.60;65.50;;;;;;5036167;28;20040;-82
2022/08/14 09:14:29;;;;;;;5.05;4.55;;;32.60;65.70;;;;;;5044314;28;20040;-82
2022/08/14 09:16:57;;;;;;;8.43;4.55;;;32.70;64.50;;;;;;5035926;28;20495;-80
2022/08/14 09:19:22;;;;;;;5.35;4.32;;;32.80;63.50;;;;;;5035547;28;20125;-83
2022/08/14 09:21:49;;;;;;;4.95;4.50;;;32.90;64.20;;;;;;5035564;28;20455;-81
2022/08/14 09:24:14;;;;;;;5.40;4.90;;;33.10;62.90;;;;;;5042693;28;20521;-81
2022/08/14 09:26:42;;;;;;;8.00;4.25;;;33.20;62.40;;;;;;5043538;28;20116;-81
2022/08/14 09:29:08;;;;;;;5.88;4.40;;;33.30;61.50;;;;;;5035839;28;20045;-82
2022/08/14 09:31:36;;;;;;;4.90;3.92;;;33.30;61.90;;;;;;5035959;28;20110;-82
2022/08/14 09:34:37;;;;;;;5.30;4.60;;;33.40;61.40;;;;;;5041108;28;20040;-82
2022/08/14 09:37:05;;;;;;;7.05;5.22;;;33.40;59.60;;;;;;5013985;28;20102;-82
2022/08/14 09:39:49;;;;;;;4.10;3.80;;;33.30;61.30;;;;;;5050361;28;20048;-82
2022/08/14 09:42:33;;;;;;;5.05;4.15;;;33.30;60.00;;;;;;5052061;28;20040;-83
2022/08/14 09:45:22;;;;;;;5.90;4.15;;;33.20;60.80;;;;;;5054335;28;20044;-83
2022/08/14 09:47:56;;;;;;;5.00;4.05;;;33.30;59.20;;;;;;5035820;28;20052;-82
2022/08/14 09:50:28;;;;;;;7.13;4.38;;;33.30;58.90;;;;;;5036544;28;20052;-82
2022/08/14 09:53:06;;;;;;;5.45;4.57;;;33.20;58.90;;;;;;5037265;28;20055;-80
2022/08/14 09:55:34;;;;;;;4.65;4.13;;;33.00;59.10;;;;;;5035421;28;20411;-79
2022/08/14 09:58:18;;;;;;;4.57;4.18;;;32.70;59.60;;;;;;5053910;28;20041;-79
2022/08/14 10:00:58;;;;;;;7.68;4.95;;;32.70;59.60;;;;;;5047015;28;20041;-79
2022/08/14 10:03:31;;;;;;;5.68;4.72;;;32.90;59.00;;;;;;5047843;28;20041;-80
2022/08/14 10:06:11;;;;;;;7.07;4.57;;;33.00;60.20;;;;;;5046753;28;20049;-78
2022/08/14 10:08:43;;;;;;;5.13;4.57;;;33.10;59.50;;;;;;5020711;28;20032;-79
2022/08/14 10:11:16;;;;;;;5.60;5.10;;;33.20;59.60;;;;;;5044124;28;20102;-79
2022/08/14 10:13:42;;;;;;;4.75;4.22;;;33.30;58.70;;;;;;5052678;28;20029;-79
2022/08/14 10:16:08;;;;;;;5.00;4.30;;;33.20;57.60;;;;;;5071430;28;20052;-79
2022/08/14 10:18:33;;;;;;;5.05;4.45;;;33.00;57.60;;;;;;5052871;28;20055;-81
2022/08/14 10:21:00;;;;;;;5.78;4.25;;;32.80;58.20;;;;;;5020118;28;20437;-82
2022/08/14 10:23:44;;;;;;;4.63;4.22;;;32.80;57.90;;;;;;5038205;28;20045;-79
2022/08/14 10:26:10;;;;;;;4.65;4.25;;;32.90;57.30;;;;;;5052226;28;20072;-81
2022/08/14 10:28:44;;;;;;;4.93;4.25;;;32.90;57.90;;;;;;5038749;28;20145;-81
2022/08/14 10:31:25;;;;;;;5.50;4.05;;;32.80;56.40;;;;;;5054091;28;20067;-82
2022/08/14 10:34:18;;;;;;;7.30;4.40;;;32.70;58.30;;;;;;5037081;28;20167;-80
2022/08/14 10:36:48;;;;;;;4.05;3.50;;;32.60;56.90;;;;;;5040155;28;20049;-82
2022/08/14 10:39:22;;;;;;;3.90;3.60;;;32.50;57.10;;;;;;5038089;28;20078;-81
2022/08/14 10:41:58;;;;;;;4.97;3.80;;;32.40;57.50;;;;;;5037587;28;20044;-82
2022/08/14 10:44:37;;;;;;;4.50;4.07;;;32.40;57.30;;;;;;5054332;28;20051;-80
2022/08/14 10:47:09;;;;;;;4.70;3.78;;;32.30;57.80;;;;;;5050012;28;20061;-81
2022/08/14 10:49:36;;;;;;;4.63;3.55;;;32.30;57.20;;;;;;5049875;28;20045;-79
2022/08/14 10:52:06;;;;;;;3.95;3.55;;;32.40;57.00;;;;;;5038249;28;20052;-80
2022/08/14 10:54:41;;;;;;;4.82;4.30;;;32.40;56.80;;;;;;5034438;28;20499;-81
2022/08/14 10:57:23;;;;;;;5.40;4.38;;;32.50;56.90;;;;;;5025250;28;20035;-85
2022/08/14 10:59:57;;;;;;;5.18;4.55;;;32.50;57.10;;;;;;5054742;28;20119;-83
2022/08/14 11:02:33;;;;;;;4.63;4.22;;;32.40;56.90;;;;;;5036844;28;20056;-81
2022/08/14 11:05:10;;;;;;;6.82;4.72;;;32.40;56.90;;;;;;5035299;28;20080;-82
2022/08/14 11:07:38;;;;;;;5.97;4.53;;;32.40;57.00;;;;;;5038850;28;20507;-82
2022/08/14 11:10:10;;;;;;;4.82;4.43;;;32.50;57.50;;;;;;5033849;28;20484;-82
2022/08/14 11:12:46;;;;;;;5.22;4.63;;;32.60;57.10;;;;;;5044164;28;20036;-84
2022/08/14 11:15:28;;;;;;;6.63;4.45;;;32.60;56.40;;;;;;5037574;28;20048;-84
2022/08/14 11:17:54;;;;;;;;;;;32.50;59.30;;;;;;5034554;28;20067;-83
2022/08/14 11:20:22;;;;;;;4.63;4.20;;;32.50;57.70;;;;;;5051455;28;19923;-81
2022/08/14 11:22:53;;;;;;;5.70;4.18;;;32.50;56.90;;;;;;5054274;28;20041;-85
2022/08/14 11:25:22;;;;;;;9.13;4.68;;;32.60;57.70;;;;;;5054502;28;20028;-83
2022/08/14 11:27:49;;;;;;;4.85;4.30;;;32.80;57.50;;;;;;5053307;28;20731;-82
2022/08/14 11:30:21;;;;;;;6.05;4.63;;;32.80;56.50;;;;;;5053694;28;20124;-83
2022/08/14 11:32:49;;;;;;;6.68;4.80;;;32.90;56.90;;;;;;5044558;28;20047;-83
2022/08/14 11:35:20;;;;;;;4.50;3.50;;;32.80;57.30;;;;;;5049165;28;20036;-83
2022/08/14 11:37:55;;;;;;;4.93;4.22;;;32.80;55.90;;;;;;5053146;28;20058;-84
2022/08/14 11:40:23;;;;;;;5.80;4.43;;;33.00;55.70;;;;;;5035919;28;20124;-82
2022/08/14 11:42:54;;;;;;;4.28;3.88;;;33.10;56.00;;;;;;5053435;28;20037;-82
2022/08/14 11:45:23;;;;;;;5.75;4.20;;;33.10;56.00;;;;;;5053118;28;20047;-82
2022/08/14 11:47:50;;;;;;;7.90;3.92;;;33.00;55.10;;;;;;5053436;28;20139;-82
2022/08/14 11:50:24;;;;;;;5.22;4.05;;;32.90;55.30;;;;;;5053039;28;20447;-84
2022/08/14 11:52:55;;;;;;;4.10;3.80;;;33.00;55.80;;;;;;5053084;28;20040;-83
2022/08/14 11:55:23;;;;;;;6.05;5.32;;;33.00;55.40;;;;;;5053207;28;20120;-83
2022/08/14 11:58:02;;;;;;;6.28;4.80;;;33.00;55.40;;;;;;5052816;28;20048;-83
2022/08/14 12:00:29;;;;;;;7.18;4.60;;;33.00;55.20;;;;;;5052514;28;20127;-80
2022/08/14 12:02:57;;;;;;;4.88;3.83;;;33.10;55.70;;;;;;5053197;28;20459;-84
2022/08/14 12:05:35;;;;;;;5.25;4.55;;;33.20;55.10;;;;;;5037065;28;20487;-82
2022/08/14 12:08:03;;;;;;;7.97;4.95;;;33.40;54.70;;;;;;5053399;28;20203;-83
2022/08/14 12:10:30;;;;;;;5.47;4.97;;;33.40;54.70;;;;;;5052598;28;20407;-82
2022/08/14 12:12:56;;;;;;;5.53;5.00;;;33.40;55.60;;;;;;5053030;28;20064;-82
2022/08/14 12:15:33;;;;;;;8.68;5.45;;;33.40;55.40;;;;;;5053601;28;20068;-82
2022/08/14 12:18:00;;;;;;;5.30;4.50;;;33.30;54.70;;;;;;5054144;28;20048;-83
2022/08/14 12:20:31;;;;;;;4.63;4.20;;;33.30;54.50;;;;;;5036820;28;20124;-82
2022/08/14 12:22:59;;;;;;;4.55;4.15;;;33.40;53.90;;;;;;5053700;28;20049;-80
2022/08/14 12:25:26;;;;;;;6.53;5.07;;;33.50;54.30;;;;;;5056312;28;20045;-81
2022/08/14 12:27:54;;;;;;;6.32;4.93;;;33.50;53.80;;;;;;5060436;28;20119;-81
2022/08/14 12:30:25;;;;;;;6.65;4.50;;;33.60;54.70;;;;;;5059597;28;20117;-80
2022/08/14 12:32:51;;;;;;;6.15;4.50;;;33.70;52.80;;;;;;5061634;28;20045;-80
2022/08/14 12:35:16;;;;;;;5.18;4.68;;;33.70;53.70;;;;;;5044938;28;20514;-81
2022/08/14 12:37:50;;;;;;;5.03;4.60;;;33.70;53.10;;;;;;5045025;28;20045;-80
2022/08/14 12:40:17;;;;;;;5.20;4.22;;;33.60;54.30;;;;;;5063646;28;20479;-79
2022/08/14 12:42:44;;;;;;;6.35;4.43;;;33.50;53.50;;;;;;5046682;28;20033;-80
2022/08/14 12:45:12;;;;;;;5.53;4.15;;;33.60;53.90;;;;;;5044837;28;20071;-80
2022/08/14 12:47:42;;;;;;;5.72;4.53;;;33.60;53.60;;;;;;5061362;28;20048;-81
2022/08/14 12:50:09;;;;;;;5.35;4.57;;;33.80;53.80;;;;;;5076405;28;20071;-81
2022/08/14 12:52:39;;;;;;;5.93;4.72;;;33.90;53.40;;;;;;5075233;28;20047;-80
2022/08/14 12:55:07;;;;;;;6.90;5.10;;;34.10;53.00;;;;;;5075673;28;20118;-80
2022/08/14 12:57:36;;;;;;;5.35;4.68;;;34.20;52.20;;;;;;5058999;28;20048;-80
2022/08/14 13:00:18;;;;;;;5.25;4.50;;;34.20;53.20;;;;;;5041392;28;20033;-80
2022/08/14 13:02:46;;;;;;;5.03;4.53;;;34.20;51.80;;;;;;5059858;28;20052;-80
2022/08/14 13:05:13;;;;;;;5.53;4.15;;;33.90;52.20;;;;;;5046137;28;20079;-81
2022/08/14 13:07:40;;;;;;;8.85;4.65;;;33.30;52.80;;;;;;5063937;28;20040;-82